createdAt,value
2023-02-16T00:01:26.285Z,25.83
2023-02-16T00:03:56.334Z,25.84
2023-02-16T00:06:25.050Z,25.84
2023-02-16T00:08:56.286Z,25.80
2023-02-16T00:11:46.639Z,25.77
2023-02-16T00:14:15.499Z,25.74
2023-02-16T00:16:43.598Z,25.73
2023-02-16T00:19:23.010Z,25.76
2023-02-16T00:21:53.296Z,25.71
2023-02-16T00:24:22.970Z,25.79
2023-02-16T00:26:51.246Z,25.79
2023-02-16T00:29:23.964Z,25.82
2023-02-16T00:31:53.290Z,25.68
2023-02-16T00:34:33.387Z,25.82
2023-02-16T00:37:03.833Z,25.81
2023-02-16T00:39:33.883Z,25.79
2023-02-16T00:42:04.110Z,25.82
2023-02-16T00:44:37.721Z,25.84
2023-02-16T00:47:18.584Z,25.87
2023-02-16T00:49:46.830Z,25.90
2023-02-16T00:52:30.990Z,25.93
2023-02-16T00:55:01.363Z,25.91
2023-02-16T00:57:33.433Z,25.92
2023-02-16T01:00:06.374Z,25.86
2023-02-16T01:02:34.685Z,25.75
2023-02-16T01:05:02.586Z,25.79
2023-02-16T01:07:49.396Z,25.78
2023-02-16T01:10:37.278Z,25.73
2023-02-16T01:13:05.592Z,25.79
2023-02-16T01:15:35.493Z,25.81
2023-02-16T01:18:03.608Z,25.82
2023-02-16T01:20:31.638Z,25.81
2023-02-16T01:23:01.149Z,25.81
2023-02-16T01:25:31.026Z,25.83
2023-02-16T01:27:59.155Z,25.84
2023-02-16T01:30:27.643Z,25.88
2023-02-16T01:32:56.068Z,25.89
2023-02-16T01:35:25.390Z,25.88
2023-02-16T01:37:53.451Z,25.87
2023-02-16T01:40:35.462Z,25.93
2023-02-16T01:43:11.283Z,25.91
2023-02-16T01:45:44.399Z,25.90
2023-02-16T01:48:22.437Z,25.93
2023-02-16T01:50:59.737Z,25.93
2023-02-16T01:53:31.655Z,25.96
2023-02-16T01:56:03.086Z,25.98
2023-02-16T01:58:40.963Z,25.95
2023-02-16T02:01:36.892Z,25.99
2023-02-16T02:04:33.687Z,25.97
2023-02-16T02:07:02.126Z,25.95
2023-02-16T02:09:38.574Z,25.97
2023-02-16T02:12:15.058Z,25.96
2023-02-16T02:14:44.547Z,25.93
2023-02-16T02:17:18.838Z,25.91
2023-02-16T02:19:58.134Z,25.88
2023-02-16T02:23:07.547Z,25.84
2023-02-16T02:25:59.624Z,25.83
2023-02-16T02:28:41.222Z,25.85
2023-02-16T02:31:19.008Z,25.87
2023-02-16T02:33:59.970Z,25.92
2023-02-16T02:36:37.066Z,25.91
2023-02-16T02:39:17.815Z,25.91
2023-02-16T02:42:06.396Z,25.93
2023-02-16T02:44:58.822Z,25.91
2023-02-16T02:47:39.131Z,25.88
2023-02-16T02:50:40.047Z,25.91
2023-02-16T02:53:14.217Z,25.94
2023-02-16T02:56:06.238Z,25.87
2023-02-16T02:59:07.035Z,25.88
2023-02-16T03:01:39.022Z,25.95
2023-02-16T03:04:10.102Z,25.99
2023-02-16T03:06:41.663Z,26.04
2023-02-16T03:09:14.226Z,26.05
2023-02-16T03:12:01.390Z,26.07
2023-02-16T03:14:34.249Z,26.03
2023-02-16T03:17:25.977Z,26.04
2023-02-16T03:20:12.133Z,26.02
2023-02-16T03:22:58.500Z,26.02
2023-02-16T03:25:47.949Z,26.02
2023-02-16T03:28:35.910Z,26.00
2023-02-16T03:31:05.409Z,26.00
2023-02-16T03:33:35.403Z,26.03
2023-02-16T03:36:04.398Z,26.02
2023-02-16T03:38:32.911Z,26.02
2023-02-16T03:41:01.343Z,25.96
2023-02-16T03:43:30.328Z,25.89
2023-02-16T03:45:58.464Z,25.95
2023-02-16T03:48:26.532Z,25.99
2023-02-16T03:50:55.904Z,26.00
2023-02-16T03:53:24.009Z,25.98
2023-02-16T03:55:51.973Z,25.98
2023-02-16T03:58:22.324Z,26.01
2023-02-16T04:00:50.346Z,26.04
2023-02-16T04:03:18.795Z,26.05
2023-02-16T04:05:47.032Z,26.10
2023-02-16T04:08:16.647Z,26.09
2023-02-16T04:10:45.214Z,26.10
2023-02-16T04:13:12.259Z,26.10
2023-02-16T04:15:41.270Z,26.03
2023-02-16T04:18:09.306Z,26.12
2023-02-16T04:20:37.387Z,26.15
2023-02-16T04:23:05.381Z,26.16
2023-02-16T04:25:34.931Z,26.15
2023-02-16T04:28:02.896Z,26.07
2023-02-16T04:30:32.469Z,26.11
2023-02-16T04:33:00.600Z,26.07
2023-02-16T04:35:28.636Z,26.04
2023-02-16T04:37:56.676Z,26.03
2023-02-16T04:40:24.670Z,25.98
2023-02-16T04:42:54.017Z,25.99
2023-02-16T04:45:22.033Z,26.00
2023-02-16T04:47:50.113Z,26.00
2023-02-16T04:50:18.382Z,25.98
2023-02-16T04:52:46.332Z,25.98
2023-02-16T04:55:14.391Z,25.99
2023-02-16T04:57:42.353Z,25.97
2023-02-16T05:00:13.154Z,25.99
2023-02-16T05:02:41.403Z,25.98
2023-02-16T05:05:09.623Z,25.92
2023-02-16T05:07:37.741Z,25.97
2023-02-16T05:10:07.252Z,25.98
2023-02-16T05:12:52.659Z,26.00
2023-02-16T05:15:22.196Z,25.98
2023-02-16T05:17:50.215Z,25.95
2023-02-16T05:20:18.621Z,26.02
2023-02-16T05:22:46.690Z,26.04
2023-02-16T05:25:14.909Z,26.04
2023-02-16T05:27:42.888Z,26.04
2023-02-16T05:30:12.177Z,26.04
2023-02-16T05:32:41.522Z,26.07
2023-02-16T05:35:09.602Z,26.03
2023-02-16T05:37:37.664Z,26.02
2023-02-16T05:40:06.409Z,26.00
2023-02-16T05:42:34.387Z,26.05
2023-02-16T05:45:02.439Z,26.05
2023-02-16T05:47:30.549Z,26.00
2023-02-16T05:49:59.956Z,25.95
2023-02-16T05:52:28.114Z,25.95
2023-02-16T05:54:56.381Z,25.95
2023-02-16T05:57:24.360Z,25.97
2023-02-16T05:59:52.264Z,25.94
2023-02-16T06:02:20.210Z,25.89
2023-02-16T06:04:48.162Z,25.88
2023-02-16T06:07:17.558Z,25.89
2023-02-16T06:09:45.582Z,25.89
2023-02-16T06:12:13.551Z,25.92
2023-02-16T06:14:41.446Z,25.92
2023-02-16T06:17:09.405Z,25.89
2023-02-16T06:19:37.438Z,25.91
2023-02-16T06:22:05.825Z,25.88
2023-02-16T06:24:35.350Z,25.93
2023-02-16T06:27:03.352Z,25.95
2023-02-16T06:29:32.084Z,25.93
2023-02-16T06:32:00.284Z,25.94
2023-02-16T06:34:28.245Z,25.97
2023-02-16T06:36:56.357Z,25.97
2023-02-16T06:39:24.324Z,25.97
2023-02-16T06:41:53.808Z,25.98
2023-02-16T06:44:21.917Z,25.95
2023-02-16T06:46:50.030Z,25.97
2023-02-16T06:49:20.594Z,25.98
2023-02-16T06:51:50.801Z,25.97
2023-02-16T06:54:19.657Z,25.95
2023-02-16T06:56:47.950Z,25.92
2023-02-16T06:59:17.316Z,25.91
2023-02-16T07:01:45.698Z,25.89
2023-02-16T07:04:13.888Z,25.90
2023-02-16T07:06:42.369Z,25.88
2023-02-16T07:09:12.425Z,25.86
2023-02-16T07:11:40.912Z,25.88
2023-02-16T07:14:09.029Z,25.88
2023-02-16T07:16:38.661Z,25.86
2023-02-16T07:19:06.996Z,25.84
2023-02-16T07:21:35.222Z,25.85
2023-02-16T07:24:03.644Z,25.83
2023-02-16T07:26:31.695Z,25.80
2023-02-16T07:28:59.893Z,25.73
2023-02-16T07:31:27.947Z,25.70
2023-02-16T07:33:57.392Z,25.69
2023-02-16T07:36:25.334Z,25.65
2023-02-16T07:38:53.677Z,25.61
2023-02-16T07:41:22.376Z,25.61
2023-02-16T07:43:50.469Z,25.60
2023-02-16T07:46:18.710Z,25.56
2023-02-16T07:48:48.662Z,25.51
2023-02-16T07:51:23.998Z,25.48
2023-02-16T07:53:52.392Z,25.49
2023-02-16T07:56:22.186Z,25.56
2023-02-16T07:58:52.518Z,25.56
2023-02-16T08:01:20.710Z,25.56
2023-02-16T08:03:49.114Z,25.58
2023-02-16T08:06:17.376Z,25.54
2023-02-16T08:08:47.460Z,25.50
2023-02-16T08:11:18.676Z,25.35
2023-02-16T08:13:47.617Z,25.48
2023-02-16T08:16:18.280Z,25.45
2023-02-16T08:18:46.610Z,25.43
2023-02-16T08:21:16.500Z,25.41
2023-02-16T08:23:48.396Z,25.42
2023-02-16T08:26:18.326Z,25.42
2023-02-16T08:28:47.433Z,25.45
2023-02-16T08:31:17.002Z,25.44
2023-02-16T08:33:45.127Z,25.44
2023-02-16T08:36:18.926Z,25.46
2023-02-16T08:38:50.459Z,25.44
2023-02-16T08:41:19.428Z,24.99
2023-02-16T08:43:47.742Z,25.38
2023-02-16T08:46:16.416Z,25.32
2023-02-16T08:48:45.354Z,25.35
2023-02-16T08:51:15.607Z,25.38
2023-02-16T08:53:44.147Z,25.38
2023-02-16T08:56:14.725Z,25.40
2023-02-16T08:58:42.744Z,25.42
2023-02-16T09:01:12.011Z,25.44
2023-02-16T09:03:42.828Z,25.44
2023-02-16T09:06:12.674Z,25.45
2023-02-16T09:08:40.938Z,25.12
2023-02-16T09:11:12.209Z,25.49
2023-02-16T09:13:42.182Z,25.54
2023-02-16T09:16:13.537Z,25.57
2023-02-16T09:18:42.081Z,25.52
2023-02-16T09:21:13.962Z,25.60
2023-02-16T09:23:44.971Z,25.63
2023-02-16T09:26:13.058Z,25.62
2023-02-16T09:28:43.287Z,25.60
2023-02-16T09:31:12.503Z,25.64
2023-02-16T09:33:40.627Z,25.67
2023-02-16T09:36:11.330Z,25.68
2023-02-16T09:38:40.686Z,25.65
2023-02-16T09:41:16.230Z,25.70
2023-02-16T09:43:53.898Z,25.75
2023-02-16T09:46:23.610Z,25.75
2023-02-16T09:48:53.135Z,25.75
2023-02-16T09:51:33.925Z,25.77
2023-02-16T09:54:14.280Z,25.79
2023-02-16T09:56:50.402Z,25.81
2023-02-16T09:59:42.654Z,25.80
2023-02-16T10:02:28.073Z,25.82
2023-02-16T10:05:12.990Z,25.84
2023-02-16T10:07:48.643Z,25.86
2023-02-16T10:10:20.270Z,25.91
2023-02-16T10:12:55.888Z,25.94
2023-02-16T10:15:28.575Z,25.94
2023-02-16T10:17:58.875Z,25.86
2023-02-16T10:20:29.971Z,25.96
2023-02-16T10:23:04.423Z,25.98
2023-02-16T10:25:40.407Z,25.99
2023-02-16T10:28:16.786Z,26.03
2023-02-16T10:30:51.928Z,26.07
2023-02-16T10:33:33.883Z,26.17
2023-02-16T10:36:04.611Z,26.17
2023-02-16T10:38:39.901Z,26.23
2023-02-16T10:41:18.496Z,26.26
2023-02-16T10:43:54.462Z,26.27
2023-02-16T10:46:28.375Z,26.27
2023-02-16T10:48:57.450Z,26.24
2023-02-16T10:51:31.623Z,26.28
2023-02-16T10:54:02.840Z,26.37
2023-02-16T10:56:45.643Z,26.37
2023-02-16T10:59:18.973Z,26.41
2023-02-16T11:01:51.369Z,26.43
2023-02-16T11:04:42.736Z,26.45
2023-02-16T11:07:12.961Z,26.45
2023-02-16T11:09:42.892Z,26.45
2023-02-16T11:12:25.769Z,26.45
2023-02-16T11:14:56.030Z,26.43
2023-02-16T11:17:26.939Z,26.44
2023-02-16T11:20:00.054Z,26.42
2023-02-16T11:22:32.884Z,26.42
2023-02-16T11:25:23.899Z,26.38
2023-02-16T11:27:54.961Z,26.40
2023-02-16T11:30:32.480Z,26.38
2023-02-16T11:33:04.652Z,26.44
2023-02-16T11:35:42.092Z,26.47
2023-02-16T11:38:27.413Z,26.45
2023-02-16T11:40:56.296Z,26.44
2023-02-16T11:43:28.462Z,26.46
2023-02-16T11:46:02.273Z,26.46
2023-02-16T11:48:34.090Z,26.50
2023-02-16T11:51:05.103Z,26.47
2023-02-16T11:53:35.006Z,26.43
2023-02-16T11:56:24.145Z,26.44
2023-02-16T11:59:19.209Z,26.43
2023-02-16T12:02:04.569Z,26.48
2023-02-16T12:04:46.691Z,26.48
2023-02-16T12:07:23.547Z,26.31
2023-02-16T12:10:02.679Z,26.48
2023-02-16T12:12:37.547Z,26.50
2023-02-16T12:15:18.376Z,26.52
2023-02-16T12:18:03.358Z,26.56
2023-02-16T12:20:42.778Z,26.56
2023-02-16T12:23:24.045Z,26.55
2023-02-16T12:26:02.618Z,26.52
2023-02-16T12:28:41.947Z,26.52
2023-02-16T12:31:22.158Z,26.50
2023-02-16T12:34:03.886Z,26.49
2023-02-16T12:36:48.655Z,26.48
2023-02-16T12:39:26.411Z,26.47
2023-02-16T12:42:09.616Z,26.46
2023-02-16T12:44:42.719Z,26.27
2023-02-16T12:47:18.119Z,26.45
2023-02-16T12:49:53.320Z,26.46
2023-02-16T12:52:39.361Z,26.46
2023-02-16T12:55:19.747Z,26.27
2023-02-16T12:57:53.854Z,26.48
2023-02-16T13:00:27.015Z,26.48
2023-02-16T13:03:03.046Z,26.50
2023-02-16T13:05:35.955Z,26.46
2023-02-16T13:08:14.083Z,26.48
2023-02-16T13:10:56.261Z,26.42
2023-02-16T13:13:28.194Z,26.31
2023-02-16T13:16:03.197Z,26.24
2023-02-16T13:18:34.140Z,26.14
2023-02-16T13:21:11.005Z,25.70
2023-02-16T13:24:01.475Z,26.00
2023-02-16T13:26:43.669Z,25.96
2023-02-16T13:29:37.476Z,26.04
2023-02-16T13:32:20.184Z,26.13
2023-02-16T13:35:18.804Z,26.23
2023-02-16T13:38:19.522Z,26.29
2023-02-16T13:41:14.423Z,26.38
2023-02-16T13:43:45.112Z,26.40
2023-02-16T13:46:27.299Z,26.44
2023-02-16T13:48:55.557Z,26.47
2023-02-16T13:51:26.688Z,26.51
2023-02-16T13:53:58.007Z,26.55
2023-02-16T13:56:38.344Z,26.50
2023-02-16T13:59:49.418Z,26.42
2023-02-16T14:02:55.859Z,26.33
2023-02-16T14:05:31.109Z,26.24
2023-02-16T14:08:27.598Z,26.27
2023-02-16T14:11:07.243Z,26.27
2023-02-16T14:13:46.456Z,26.13
2023-02-16T14:16:30.215Z,26.26
2023-02-16T14:19:02.525Z,26.20
2023-02-16T14:21:37.391Z,26.29
2023-02-16T14:24:08.727Z,26.28
2023-02-16T14:26:54.021Z,26.23
2023-02-16T14:29:25.628Z,26.41
2023-02-16T14:32:00.882Z,26.43
2023-02-16T14:34:37.626Z,26.41
2023-02-16T14:37:29.188Z,26.41
2023-02-16T14:40:08.118Z,26.48
2023-02-16T14:42:37.621Z,26.56
2023-02-16T14:45:22.273Z,26.65
2023-02-16T14:47:59.948Z,26.70
2023-02-16T14:50:46.079Z,26.72
2023-02-16T14:54:00.470Z,26.72
2023-02-16T14:56:40.481Z,26.72
2023-02-16T14:59:18.250Z,26.69
2023-02-16T15:01:47.150Z,26.65
2023-02-16T15:04:29.136Z,26.62
2023-02-16T15:07:00.978Z,26.63
2023-02-16T15:09:32.009Z,26.65
2023-02-16T15:12:21.867Z,26.70
2023-02-16T15:14:51.724Z,26.68
2023-02-16T15:17:29.626Z,26.67
2023-02-16T15:20:04.107Z,26.64
2023-02-16T15:22:33.755Z,26.64
2023-02-16T15:25:04.610Z,26.67
2023-02-16T15:27:34.007Z,26.63
2023-02-16T15:30:20.363Z,26.66
2023-02-16T15:32:54.326Z,26.62
2023-02-16T15:35:41.039Z,26.60
2023-02-16T15:38:21.738Z,26.62
2023-02-16T15:40:53.923Z,26.63
2023-02-16T15:43:30.902Z,26.61
2023-02-16T15:46:00.288Z,26.59
2023-02-16T15:48:33.684Z,26.60
2023-02-16T15:51:08.063Z,26.61
2023-02-16T15:53:47.233Z,26.64
2023-02-16T15:56:39.256Z,26.64
2023-02-16T15:59:23.417Z,26.64
2023-02-16T16:01:58.923Z,26.65
2023-02-16T16:04:29.019Z,26.63
2023-02-16T16:06:57.798Z,26.64
2023-02-16T16:09:29.571Z,26.64
2023-02-16T16:12:00.126Z,26.66
2023-02-16T16:14:29.578Z,26.67
2023-02-16T16:16:58.207Z,26.64
2023-02-16T16:19:33.724Z,26.64
2023-02-16T16:22:02.616Z,26.56
2023-02-16T16:24:38.217Z,26.50
2023-02-16T16:27:09.384Z,26.44
2023-02-16T16:29:41.257Z,26.35
2023-02-16T16:32:19.634Z,26.31
2023-02-16T16:34:47.762Z,26.18
2023-02-16T16:37:29.514Z,26.21
2023-02-16T16:40:06.557Z,26.18
2023-02-16T16:42:39.195Z,26.12
2023-02-16T16:45:28.325Z,26.15
2023-02-16T16:47:56.384Z,26.16
2023-02-16T16:50:34.055Z,26.19
2023-02-16T16:53:02.583Z,26.15
2023-02-16T16:55:35.763Z,26.18
2023-02-16T16:58:08.099Z,26.17
2023-02-16T17:00:38.521Z,26.08
2023-02-16T17:03:08.363Z,26.08
2023-02-16T17:05:38.408Z,26.10
2023-02-16T17:08:06.720Z,26.07
2023-02-16T17:10:37.538Z,26.06
2023-02-16T17:13:05.518Z,26.01
2023-02-16T17:15:43.214Z,26.04
2023-02-16T17:18:15.829Z,26.05
2023-02-16T17:20:44.113Z,26.07
2023-02-16T17:23:13.020Z,26.09
2023-02-16T17:25:42.886Z,26.12
2023-02-16T17:28:11.798Z,26.12
2023-02-16T17:30:39.940Z,26.10
2023-02-16T17:33:09.555Z,26.08
2023-02-16T17:35:40.183Z,26.10
2023-02-16T17:38:09.783Z,26.10
2023-02-16T17:40:39.391Z,26.10
2023-02-16T17:43:14.464Z,26.11
2023-02-16T17:45:42.814Z,26.10
2023-02-16T17:48:17.016Z,25.98
2023-02-16T17:50:45.711Z,26.06
2023-02-16T17:53:15.719Z,26.04
2023-02-16T17:55:44.601Z,26.03
2023-02-16T17:58:14.506Z,25.99
2023-02-16T18:00:43.418Z,25.94
2023-02-16T18:03:11.769Z,25.93
2023-02-16T18:05:40.067Z,25.89
2023-02-16T18:08:08.237Z,25.89
2023-02-16T18:10:38.358Z,25.90
2023-02-16T18:13:07.050Z,25.88
2023-02-16T18:15:36.461Z,25.88
2023-02-16T18:18:04.885Z,25.85
2023-02-16T18:20:32.951Z,25.86
2023-02-16T18:23:01.174Z,25.83
2023-02-16T18:25:29.165Z,25.81
2023-02-16T18:27:57.092Z,25.82
2023-02-16T18:30:25.113Z,25.77
2023-02-16T18:32:54.611Z,25.82
2023-02-16T18:35:22.896Z,25.83
2023-02-16T18:37:51.047Z,25.85
2023-02-16T18:40:20.742Z,25.94
2023-02-16T18:42:49.072Z,25.99
2023-02-16T18:45:17.337Z,26.08
2023-02-16T18:47:45.513Z,26.11
2023-02-16T18:50:15.054Z,26.18
2023-02-16T18:52:44.917Z,26.20
2023-02-16T18:55:15.220Z,26.29
2023-02-16T18:57:43.766Z,26.17
2023-02-16T19:00:14.818Z,26.35
2023-02-16T19:02:43.295Z,26.13
2023-02-16T19:05:12.126Z,26.29
2023-02-16T19:07:41.741Z,26.28
2023-02-16T19:10:12.073Z,26.28
2023-02-16T19:12:40.859Z,26.29
2023-02-16T19:15:09.976Z,26.29
2023-02-16T19:17:38.809Z,26.38
2023-02-16T19:20:09.752Z,26.40
2023-02-16T19:22:38.223Z,26.42
2023-02-16T19:25:08.539Z,26.33
2023-02-16T19:27:36.511Z,26.52
2023-02-16T19:30:05.209Z,26.59
2023-02-16T19:32:33.202Z,26.63
2023-02-16T19:35:01.220Z,26.64
2023-02-16T19:37:29.173Z,26.63
2023-02-16T19:39:57.185Z,26.65
2023-02-16T19:42:26.590Z,26.68
2023-02-16T19:44:54.726Z,26.65
2023-02-16T19:47:22.628Z,26.61
2023-02-16T19:49:50.565Z,26.60
2023-02-16T19:52:18.465Z,26.62
2023-02-16T19:54:46.646Z,26.64
2023-02-16T19:57:14.649Z,26.66
2023-02-16T19:59:44.272Z,26.69
2023-02-16T20:02:14.755Z,26.70
2023-02-16T20:04:42.814Z,26.65
2023-02-16T20:07:11.189Z,26.76
2023-02-16T20:09:39.747Z,26.76
2023-02-16T20:12:08.241Z,26.78
2023-02-16T20:14:36.913Z,26.77
2023-02-16T20:17:06.299Z,26.77
2023-02-16T20:19:34.208Z,26.74
2023-02-16T20:22:02.141Z,26.75
2023-02-16T20:24:30.153Z,26.79
2023-02-16T20:26:58.088Z,26.80
2023-02-16T20:29:25.975Z,26.81
2023-02-16T20:31:56.198Z,26.84
2023-02-16T20:34:27.745Z,26.88
2023-02-16T20:36:56.415Z,26.90
2023-02-16T20:39:24.894Z,26.94
2023-02-16T20:41:52.850Z,26.95
2023-02-16T20:44:22.562Z,26.97
2023-02-16T20:46:51.248Z,26.97
2023-02-16T20:49:19.694Z,26.98
2023-02-16T20:51:49.082Z,26.99
2023-02-16T20:54:17.005Z,26.98
2023-02-16T20:56:44.995Z,27.02
2023-02-16T20:59:13.112Z,27.03
2023-02-16T21:01:43.557Z,27.05
2023-02-16T21:04:11.798Z,27.05
2023-02-16T21:06:40.032Z,27.09
2023-02-16T21:09:10.774Z,27.09
2023-02-16T21:11:40.671Z,27.07
2023-02-16T21:14:11.286Z,27.06
2023-02-16T21:16:40.991Z,27.04
2023-02-16T21:19:20.877Z,27.02
2023-02-16T21:21:50.916Z,27.00
2023-02-16T21:24:20.411Z,26.98
2023-02-16T21:26:48.390Z,26.96
2023-02-16T21:29:16.444Z,26.93
2023-02-16T21:31:45.016Z,26.92
2023-02-16T21:34:13.167Z,26.93
2023-02-16T21:36:41.299Z,26.92
2023-02-16T21:39:09.536Z,26.89
2023-02-16T21:41:38.223Z,26.89
2023-02-16T21:44:08.067Z,26.86
2023-02-16T21:46:38.309Z,26.85
2023-02-16T21:49:06.112Z,26.84
2023-02-16T21:51:36.488Z,26.80
2023-02-16T21:54:06.660Z,26.77
2023-02-16T21:56:36.935Z,26.77
2023-02-16T21:59:08.432Z,26.79
2023-02-16T22:01:39.382Z,26.80
2023-02-16T22:04:07.754Z,26.80
2023-02-16T22:06:39.511Z,26.78
2023-02-16T22:09:09.678Z,26.76
2023-02-16T22:11:38.008Z,26.77
2023-02-16T22:14:07.891Z,26.78
2023-02-16T22:16:37.565Z,26.45
2023-02-16T22:19:07.653Z,26.80
2023-02-16T22:21:36.461Z,26.65
2023-02-16T22:24:05.664Z,26.79
2023-02-16T22:26:35.146Z,26.81
2023-02-16T22:29:04.213Z,26.81
2023-02-16T22:31:33.872Z,26.81
2023-02-16T22:34:03.764Z,26.80
2023-02-16T22:36:32.202Z,26.75
2023-02-16T22:39:00.652Z,26.77
2023-02-16T22:41:28.944Z,26.70
2023-02-16T22:43:59.232Z,26.65
2023-02-16T22:46:28.311Z,26.61
2023-02-16T22:48:59.348Z,26.54
2023-02-16T22:51:29.355Z,26.60
2023-02-16T22:53:58.505Z,26.56
2023-02-16T22:56:26.917Z,26.56
2023-02-16T22:58:57.491Z,26.57
2023-02-16T23:01:27.800Z,26.56
2023-02-16T23:03:58.965Z,26.52
2023-02-16T23:06:29.417Z,26.50
2023-02-16T23:08:58.932Z,26.50
2023-02-16T23:11:28.138Z,26.48
2023-02-16T23:13:56.572Z,26.46
2023-02-16T23:16:26.701Z,26.42
2023-02-16T23:18:58.084Z,26.42
2023-02-16T23:21:28.078Z,26.39
2023-02-16T23:23:56.504Z,26.35
2023-02-16T23:26:28.660Z,26.34
2023-02-16T23:28:58.552Z,26.28
2023-02-16T23:31:26.924Z,26.24
2023-02-16T23:34:00.010Z,26.22
2023-02-16T23:36:29.917Z,26.18
2023-02-16T23:39:01.540Z,26.18
2023-02-16T23:41:29.978Z,26.16
2023-02-16T23:43:59.988Z,26.14
2023-02-16T23:46:29.071Z,26.14
2023-02-16T23:48:58.606Z,26.12
2023-02-16T23:51:27.395Z,25.92
2023-02-16T23:53:55.989Z,26.09
2023-02-16T23:56:25.330Z,26.01
2023-02-16T23:58:54.111Z,26.04
